createdAt,value
2018-09-15T00:01:34.012Z,12.30
2018-09-15T00:04:03.436Z,11.07
2018-09-15T00:06:33.950Z,12.00
2018-09-15T00:09:03.947Z,12.17
2018-09-15T00:11:33.426Z,13.37
2018-09-15T00:14:02.905Z,11.97
2018-09-15T00:16:32.343Z,10.70
2018-09-15T00:19:01.799Z,15.03
2018-09-15T00:21:31.218Z,16.03
2018-09-15T00:24:00.652Z,16.37
2018-09-15T00:26:30.134Z,18.53
2018-09-15T00:28:59.539Z,14.43
2018-09-15T00:31:29.006Z,16.07
2018-09-15T00:33:58.438Z,17.67
2018-09-15T00:36:27.828Z,18.97
2018-09-15T00:38:57.316Z,17.73
2018-09-15T00:41:26.956Z,18.23
2018-09-15T00:43:56.405Z,16.57
2018-09-15T00:46:25.832Z,13.80
2018-09-15T00:48:55.262Z,15.20
2018-09-15T00:51:24.712Z,15.50
2018-09-15T00:53:54.169Z,13.77
2018-09-15T00:56:23.627Z,14.67
2018-09-15T00:58:53.070Z,15.63
2018-09-15T01:01:22.525Z,15.57
2018-09-15T01:03:51.981Z,18.47
2018-09-15T01:06:21.507Z,16.13
2018-09-15T01:08:50.925Z,18.47
2018-09-15T01:11:20.441Z,16.90
2018-09-15T01:13:49.900Z,16.50
2018-09-15T01:16:19.348Z,17.40
2018-09-15T01:18:48.765Z,19.13
2018-09-15T01:21:18.208Z,14.83
2018-09-15T01:23:47.587Z,11.00
2018-09-15T01:26:17.272Z,13.77
2018-09-15T01:28:49.753Z,13.80
2018-09-15T01:31:20.923Z,11.97
2018-09-15T01:33:50.322Z,9.53
2018-09-15T01:36:19.739Z,9.63
2018-09-15T01:38:49.167Z,12.47
2018-09-15T01:41:18.640Z,15.60
2018-09-15T01:43:48.633Z,12.77
2018-09-15T01:46:18.108Z,13.17
2018-09-15T01:48:47.565Z,11.53
2018-09-15T01:51:17.073Z,13.57
2018-09-15T01:53:46.754Z,11.83
2018-09-15T01:56:16.175Z,15.27
2018-09-15T01:58:45.598Z,14.80
2018-09-15T02:01:15.069Z,18.07
2018-09-15T02:03:44.509Z,15.37
2018-09-15T02:06:13.951Z,17.23
2018-09-15T02:08:43.470Z,17.47
2018-09-15T02:11:12.918Z,13.90
2018-09-15T02:13:42.399Z,18.23
2018-09-15T02:16:11.864Z,19.10
2018-09-15T02:18:41.250Z,15.73
2018-09-15T02:21:10.720Z,16.00
2018-09-15T02:23:40.154Z,17.37
2018-09-15T02:26:10.321Z,20.23
2018-09-15T02:28:40.013Z,17.33
2018-09-15T02:31:09.493Z,16.77
2018-09-15T02:33:38.897Z,15.97
2018-09-15T02:36:08.340Z,20.63
2018-09-15T02:38:37.787Z,17.20
2018-09-15T02:41:07.250Z,15.20
2018-09-15T02:43:36.674Z,15.60
2018-09-15T02:46:06.177Z,13.63
2018-09-15T02:48:35.612Z,15.30
2018-09-15T02:51:05.100Z,15.10
2018-09-15T02:53:34.555Z,19.30
2018-09-15T02:56:04.036Z,14.10
2018-09-15T02:58:33.809Z,13.67
2018-09-15T03:01:03.222Z,12.80
2018-09-15T03:03:32.714Z,14.93
2018-09-15T03:06:02.190Z,13.33
2018-09-15T03:08:31.647Z,13.07
2018-09-15T03:11:01.082Z,12.13
2018-09-15T03:13:30.569Z,11.87
2018-09-15T03:15:59.984Z,13.73
2018-09-15T03:18:29.917Z,12.97
2018-09-15T03:20:59.321Z,12.50
2018-09-15T03:23:28.732Z,12.17
2018-09-15T03:25:58.210Z,14.43
2018-09-15T03:28:27.651Z,11.90
2018-09-15T03:30:57.074Z,12.17
2018-09-15T03:33:26.497Z,9.70
2018-09-15T03:35:55.953Z,10.37
2018-09-15T03:38:25.397Z,9.27
2018-09-15T03:40:54.821Z,9.67
2018-09-15T03:43:24.214Z,9.90
2018-09-15T03:45:53.629Z,10.50
2018-09-15T03:48:23.248Z,10.70
2018-09-15T03:50:52.675Z,12.43
2018-09-15T03:53:22.091Z,7.57
2018-09-15T03:55:51.964Z,11.13
2018-09-15T03:58:21.348Z,9.20
2018-09-15T04:00:52.688Z,10.47
2018-09-15T04:03:22.714Z,8.47
2018-09-15T04:05:52.135Z,9.50
2018-09-15T04:08:21.792Z,8.30
2018-09-15T04:10:51.275Z,8.60
2018-09-15T04:13:20.690Z,10.27
2018-09-15T04:15:50.153Z,9.63
2018-09-15T04:18:19.566Z,10.50
2018-09-15T04:20:49.372Z,8.10
2018-09-15T04:23:18.789Z,8.77
2018-09-15T04:25:48.193Z,10.37
2018-09-15T04:28:17.634Z,10.83
2018-09-15T04:30:46.961Z,7.93
2018-09-15T04:33:16.420Z,10.97
2018-09-15T04:35:45.833Z,8.27
2018-09-15T04:38:15.235Z,11.27
2018-09-15T04:40:44.637Z,8.70
2018-09-15T04:43:14.039Z,10.43
2018-09-15T04:45:43.457Z,9.20
2018-09-15T04:48:12.918Z,9.87
2018-09-15T04:50:42.310Z,9.03
2018-09-15T04:53:11.977Z,9.07
2018-09-15T04:55:41.380Z,9.77
2018-09-15T04:58:10.734Z,9.90
2018-09-15T05:00:40.249Z,11.33
2018-09-15T05:03:10.060Z,12.13
2018-09-15T05:05:39.436Z,10.90
2018-09-15T05:08:09.115Z,11.90
2018-09-15T05:10:38.508Z,11.47
2018-09-15T05:13:08.027Z,12.97
2018-09-15T05:15:37.727Z,11.47
2018-09-15T05:18:07.094Z,13.77
2018-09-15T05:20:36.509Z,14.40
2018-09-15T05:23:06.341Z,13.10
2018-09-15T05:25:35.786Z,11.67
2018-09-15T05:28:05.263Z,15.03
2018-09-15T05:30:34.676Z,11.57
2018-09-15T05:33:04.098Z,12.43
2018-09-15T05:35:33.548Z,13.77
2018-09-15T05:38:02.933Z,11.93
2018-09-15T05:40:32.349Z,13.70
2018-09-15T05:43:01.805Z,13.70
2018-09-15T05:45:31.235Z,14.27
2018-09-15T05:48:00.730Z,12.83
2018-09-15T05:50:30.202Z,15.13
2018-09-15T05:52:59.619Z,14.00
2018-09-15T05:55:29.119Z,16.03
2018-09-15T05:57:58.972Z,15.87
2018-09-15T06:00:28.454Z,12.03
2018-09-15T06:02:57.885Z,15.00
2018-09-15T06:05:27.320Z,14.47
2018-09-15T06:07:56.760Z,16.73
2018-09-15T06:10:26.188Z,14.50
2018-09-15T06:12:55.660Z,13.40
2018-09-15T06:15:25.054Z,13.87
2018-09-15T06:17:54.468Z,15.47
2018-09-15T06:20:23.957Z,14.47
2018-09-15T06:22:53.360Z,13.47
2018-09-15T06:25:22.783Z,11.93
2018-09-15T06:27:52.149Z,13.77
2018-09-15T06:30:21.600Z,13.03
2018-09-15T06:32:51.032Z,15.53
2018-09-15T06:35:20.510Z,14.73
2018-09-15T06:37:50.010Z,14.57
2018-09-15T06:40:19.461Z,13.97
2018-09-15T06:42:48.864Z,14.57
2018-09-15T06:45:18.415Z,12.63
2018-09-15T06:47:47.796Z,13.13
2018-09-15T06:50:17.215Z,12.33
2018-09-15T06:52:46.920Z,14.10
2018-09-15T06:55:16.390Z,12.90
2018-09-15T06:57:45.820Z,13.93
2018-09-15T07:00:15.262Z,17.20
2018-09-15T07:02:44.712Z,13.53
2018-09-15T07:05:14.138Z,13.27
2018-09-15T07:07:43.538Z,12.73
2018-09-15T07:10:12.980Z,15.37
2018-09-15T07:12:42.429Z,12.63
2018-09-15T07:15:11.816Z,14.77
2018-09-15T07:17:41.232Z,15.93
2018-09-15T07:20:10.682Z,15.37
2018-09-15T07:22:40.103Z,13.23
2018-09-15T07:25:09.608Z,11.50
2018-09-15T07:27:39.012Z,12.13
2018-09-15T07:30:08.464Z,14.40
2018-09-15T07:32:37.907Z,13.30
2018-09-15T07:35:07.374Z,10.13
2018-09-15T07:37:36.902Z,12.97
2018-09-15T07:40:06.417Z,13.70
2018-09-15T07:42:35.890Z,12.03
2018-09-15T07:45:05.505Z,12.27
2018-09-15T07:47:34.980Z,13.43
2018-09-15T07:50:04.465Z,12.80
2018-09-15T07:52:33.857Z,12.13
2018-09-15T07:55:03.326Z,12.50
2018-09-15T07:57:32.807Z,13.43
2018-09-15T08:00:02.599Z,11.67
2018-09-15T08:02:31.997Z,11.13
2018-09-15T08:05:01.430Z,10.80
2018-09-15T08:07:30.835Z,11.53
2018-09-15T08:10:00.308Z,16.47
2018-09-15T08:12:29.701Z,12.93
2018-09-15T08:14:59.143Z,11.03
2018-09-15T08:17:28.566Z,9.93
2018-09-15T08:19:57.984Z,10.27
2018-09-15T08:22:27.376Z,12.20
2018-09-15T08:24:56.759Z,11.37
2018-09-15T08:27:26.201Z,8.67
2018-09-15T08:29:55.550Z,12.47
2018-09-15T08:32:25.004Z,8.60
2018-09-15T08:34:54.425Z,9.80
2018-09-15T08:37:23.881Z,9.80
2018-09-15T08:39:53.284Z,9.17
2018-09-15T08:42:22.730Z,8.70
2018-09-15T08:44:52.435Z,10.70
2018-09-15T08:47:21.891Z,7.63
2018-09-15T08:49:51.221Z,9.67
2018-09-15T08:52:20.660Z,7.83
2018-09-15T08:54:50.029Z,8.63
2018-09-15T08:57:19.465Z,12.93
2018-09-15T08:59:49.023Z,9.50
2018-09-15T09:02:18.419Z,9.20
2018-09-15T09:04:47.776Z,8.97
2018-09-15T09:07:17.221Z,7.87
2018-09-15T09:09:46.715Z,9.03
2018-09-15T09:12:16.569Z,10.63
2018-09-15T09:14:46.067Z,10.13
2018-09-15T09:17:15.487Z,7.23
2018-09-15T09:19:44.945Z,8.67
2018-09-15T09:22:14.364Z,9.43
2018-09-15T09:24:43.786Z,8.60
2018-09-15T09:27:13.210Z,5.83
2018-09-15T09:29:42.626Z,8.73
2018-09-15T09:32:12.084Z,9.00
2018-09-15T09:34:41.739Z,10.20
2018-09-15T09:37:11.186Z,11.67
2018-09-15T09:39:40.620Z,11.70
2018-09-15T09:42:10.168Z,10.00
2018-09-15T09:44:39.603Z,11.67
2018-09-15T09:47:08.998Z,11.23
2018-09-15T09:49:38.399Z,11.17
2018-09-15T09:52:07.909Z,14.03
2018-09-15T09:54:37.281Z,10.17
2018-09-15T09:57:06.791Z,10.67
2018-09-15T09:59:36.653Z,10.13
2018-09-15T10:02:11.466Z,11.67
2018-09-15T10:04:40.883Z,11.63
2018-09-15T10:07:11.143Z,14.30
2018-09-15T10:09:40.507Z,10.37
2018-09-15T10:12:09.958Z,9.03
2018-09-15T10:14:39.406Z,8.80
2018-09-15T10:17:08.885Z,9.90
2018-09-15T10:19:38.347Z,6.87
2018-09-15T10:22:08.895Z,7.77
2018-09-15T10:24:38.596Z,8.87
2018-09-15T10:27:08.026Z,8.53
2018-09-15T10:29:37.482Z,7.90
2018-09-15T10:32:07.011Z,8.67
2018-09-15T10:34:36.443Z,6.67
2018-09-15T10:37:05.899Z,8.40
2018-09-15T10:39:35.393Z,5.87
2018-09-15T10:42:04.911Z,6.83
2018-09-15T10:44:34.344Z,6.90
2018-09-15T10:47:03.765Z,6.23
2018-09-15T10:49:33.144Z,6.83
2018-09-15T10:52:02.541Z,6.93
2018-09-15T10:54:32.054Z,5.43
2018-09-15T10:57:01.473Z,6.40
2018-09-15T10:59:30.904Z,6.37
2018-09-15T11:02:00.318Z,6.80
2018-09-15T11:04:29.793Z,5.57
2018-09-15T11:06:59.183Z,7.00
2018-09-15T11:09:28.630Z,8.60
2018-09-15T11:11:58.093Z,8.03
2018-09-15T11:14:27.529Z,7.17
2018-09-15T11:16:56.960Z,6.93
2018-09-15T11:19:26.429Z,7.37
2018-09-15T11:21:55.863Z,9.87
2018-09-15T11:24:25.308Z,5.30
2018-09-15T11:26:54.724Z,6.53
2018-09-15T11:29:24.160Z,6.83
2018-09-15T11:31:53.600Z,5.53
2018-09-15T11:34:22.977Z,6.03
2018-09-15T11:36:52.533Z,5.30
2018-09-15T11:39:21.930Z,7.87
2018-09-15T11:41:51.325Z,5.90
2018-09-15T11:44:20.749Z,6.87
2018-09-15T11:46:50.115Z,6.30
2018-09-15T11:49:19.555Z,7.80
2018-09-15T11:51:48.962Z,6.30
2018-09-15T11:54:18.402Z,3.70
2018-09-15T11:56:47.825Z,6.80
2018-09-15T11:59:17.288Z,5.17
2018-09-15T12:01:46.706Z,7.33
2018-09-15T12:04:16.083Z,5.80
2018-09-15T12:06:45.478Z,6.20
2018-09-15T12:09:14.895Z,4.43
2018-09-15T12:11:44.364Z,5.97
2018-09-15T12:14:13.797Z,8.37
2018-09-15T12:16:43.314Z,4.40
2018-09-15T12:19:12.709Z,5.60
2018-09-15T12:21:42.151Z,5.47
2018-09-15T12:24:11.548Z,6.90
2018-09-15T12:26:40.993Z,6.53
2018-09-15T12:29:10.489Z,5.27
2018-09-15T12:31:39.842Z,7.07
2018-09-15T12:34:09.213Z,4.57
2018-09-15T12:36:38.602Z,8.33
2018-09-15T12:39:08.746Z,4.17
2018-09-15T12:41:38.183Z,5.33
2018-09-15T12:44:07.621Z,6.47
2018-09-15T12:46:37.035Z,6.37
2018-09-15T12:49:06.696Z,5.27
2018-09-15T12:51:36.096Z,5.73
2018-09-15T12:54:05.921Z,5.33
2018-09-15T12:56:35.355Z,3.27
2018-09-15T12:59:04.779Z,4.97
2018-09-15T13:01:34.226Z,5.93
2018-09-15T13:04:03.649Z,2.87
2018-09-15T13:06:33.209Z,4.23
2018-09-15T13:09:02.645Z,5.50
2018-09-15T13:11:32.088Z,4.73
2018-09-15T13:14:01.581Z,3.73
2018-09-15T13:16:30.979Z,4.70
2018-09-15T13:19:00.584Z,4.40
2018-09-15T13:21:30.135Z,7.20
2018-09-15T13:23:59.553Z,3.90
2018-09-15T13:26:29.176Z,5.87
2018-09-15T13:28:58.729Z,4.43
2018-09-15T13:31:28.287Z,5.00
2018-09-15T13:33:57.969Z,4.43
2018-09-15T13:36:27.807Z,5.70
2018-09-15T13:38:57.369Z,4.13
2018-09-15T13:41:27.010Z,5.70
2018-09-15T13:44:03.310Z,3.90
2018-09-15T13:46:32.757Z,5.87
2018-09-15T13:49:02.621Z,5.00
2018-09-15T13:51:32.049Z,3.63
2018-09-15T13:54:01.444Z,3.23
2018-09-15T13:56:30.804Z,9.07
2018-09-15T13:59:00.314Z,5.80
2018-09-15T14:01:29.640Z,3.50
2018-09-15T14:03:59.045Z,5.60
2018-09-15T14:06:28.530Z,4.60
2018-09-15T14:08:58.081Z,4.03
2018-09-15T14:11:27.441Z,4.00
2018-09-15T14:13:56.855Z,3.50
2018-09-15T14:16:26.307Z,4.10
2018-09-15T14:18:55.649Z,3.50
2018-09-15T14:21:25.069Z,3.73
2018-09-15T14:23:54.522Z,3.97
2018-09-15T14:26:23.874Z,4.27
2018-09-15T14:28:53.198Z,4.33
2018-09-15T14:31:22.625Z,4.57
2018-09-15T14:33:52.012Z,4.37
2018-09-15T14:36:21.405Z,5.50
2018-09-15T14:38:50.908Z,3.70
2018-09-15T14:41:20.253Z,4.90
2018-09-15T14:43:49.661Z,3.07
2018-09-15T14:46:19.076Z,5.30
2018-09-15T14:48:49.952Z,3.10
2018-09-15T14:51:19.464Z,3.00
2018-09-15T14:53:48.848Z,4.90
2018-09-15T14:56:18.272Z,5.50
2018-09-15T14:58:47.651Z,7.27
2018-09-15T15:01:17.067Z,5.67
2018-09-15T15:03:46.430Z,4.70
2018-09-15T15:06:15.804Z,4.53
2018-09-15T15:08:45.207Z,3.83
2018-09-15T15:11:14.656Z,3.20
2018-09-15T15:13:44.086Z,5.33
2018-09-15T15:16:13.869Z,3.87
2018-09-15T15:18:43.329Z,4.97
2018-09-15T15:21:12.702Z,3.03
2018-09-15T15:23:42.108Z,4.90
2018-09-15T15:26:11.543Z,3.87
2018-09-15T15:28:40.902Z,5.13
2018-09-15T15:31:10.352Z,3.33
2018-09-15T15:33:39.702Z,4.93
2018-09-15T15:36:09.110Z,4.83
2018-09-15T15:38:38.483Z,3.63
2018-09-15T15:41:07.938Z,4.23
2018-09-15T15:43:37.431Z,5.50
2018-09-15T15:46:06.856Z,5.23
2018-09-15T15:48:36.276Z,5.10
2018-09-15T15:51:05.696Z,5.27
2018-09-15T15:53:35.121Z,5.03
2018-09-15T15:56:04.641Z,4.57
2018-09-15T15:58:34.152Z,4.77
2018-09-15T16:01:03.557Z,8.00
2018-09-15T16:03:33.005Z,3.70
2018-09-15T16:06:02.416Z,5.57
2018-09-15T16:08:31.848Z,6.13
2018-09-15T16:11:01.269Z,7.03
2018-09-15T16:13:30.713Z,4.90
2018-09-15T16:16:00.132Z,4.60
2018-09-15T16:18:29.535Z,4.73
2018-09-15T16:20:58.942Z,4.20
2018-09-15T16:23:28.371Z,4.10
2018-09-15T16:25:57.752Z,5.03
2018-09-15T16:28:27.214Z,3.90
2018-09-15T16:30:56.879Z,6.83
2018-09-15T16:33:26.268Z,4.83
2018-09-15T16:35:55.698Z,2.70
2018-09-15T16:38:25.163Z,6.23
2018-09-15T16:40:54.554Z,5.20
2018-09-15T16:43:24.068Z,3.20
2018-09-15T16:45:53.515Z,3.87
2018-09-15T16:48:22.903Z,4.10
2018-09-15T16:50:52.294Z,6.10
2018-09-15T16:53:21.769Z,4.07
2018-09-15T16:55:51.228Z,5.07
2018-09-15T16:58:20.608Z,6.63
2018-09-15T17:00:53.472Z,6.80
2018-09-15T17:03:26.055Z,5.17
2018-09-15T17:05:57.361Z,4.37
2018-09-15T17:08:27.922Z,3.40
2018-09-15T17:10:57.506Z,5.30
2018-09-15T17:13:31.275Z,4.13
2018-09-15T17:16:00.742Z,4.63
2018-09-15T17:18:30.176Z,5.37
2018-09-15T17:20:59.600Z,3.67
2018-09-15T17:23:29.030Z,4.30
2018-09-15T17:25:58.576Z,5.43
2018-09-15T17:28:28.382Z,4.67
2018-09-15T17:30:57.874Z,4.53
2018-09-15T17:33:27.262Z,4.17
2018-09-15T17:35:56.849Z,4.90
2018-09-15T17:38:26.215Z,3.93
2018-09-15T17:40:55.596Z,3.83
2018-09-15T17:43:25.008Z,6.53
2018-09-15T17:45:54.517Z,5.20
2018-09-15T17:48:23.873Z,4.90
2018-09-15T17:50:53.291Z,3.23
2018-09-15T17:53:22.729Z,3.17
2018-09-15T17:55:52.098Z,2.90
2018-09-15T17:58:21.471Z,5.47
2018-09-15T18:00:51.392Z,4.63
2018-09-15T18:03:20.857Z,3.67
2018-09-15T18:05:50.263Z,5.43
2018-09-15T18:08:19.672Z,4.87
2018-09-15T18:10:49.087Z,5.67
2018-09-15T18:13:18.510Z,3.73
2018-09-15T18:15:52.665Z,4.40
2018-09-15T18:18:22.508Z,2.70
2018-09-15T18:20:51.944Z,3.57
2018-09-15T18:23:24.319Z,3.57
2018-09-15T18:25:54.269Z,6.70
2018-09-15T18:28:24.260Z,4.70
2018-09-15T18:30:53.781Z,3.33
2018-09-15T18:33:23.180Z,3.40
2018-09-15T18:35:52.804Z,5.10
2018-09-15T18:38:22.949Z,4.00
2018-09-15T18:40:53.289Z,4.07
2018-09-15T18:43:22.746Z,3.83
2018-09-15T18:45:52.192Z,4.37
2018-09-15T18:48:22.001Z,4.47
2018-09-15T18:50:51.786Z,4.27
2018-09-15T18:53:22.023Z,5.77
2018-09-15T18:55:52.640Z,2.80
2018-09-15T18:58:23.163Z,5.13
2018-09-15T19:00:53.377Z,7.33
2018-09-15T19:03:23.256Z,2.93
2018-09-15T19:05:53.953Z,3.83
2018-09-15T19:08:24.471Z,4.07
2018-09-15T19:10:53.887Z,3.67
2018-09-15T19:13:24.019Z,4.07
2018-09-15T19:15:53.704Z,3.13
2018-09-15T19:18:23.638Z,4.37
2018-09-15T19:20:53.854Z,6.60
2018-09-15T19:23:24.018Z,3.70
2018-09-15T19:25:54.770Z,2.83
2018-09-15T19:28:24.299Z,4.43
2018-09-15T19:30:54.557Z,6.23
2018-09-15T19:33:23.996Z,5.47
2018-09-15T19:35:53.386Z,6.23
2018-09-15T19:38:22.847Z,5.07
2018-09-15T19:40:52.244Z,3.80
2018-09-15T19:43:21.612Z,5.30
2018-09-15T19:45:51.020Z,4.60
2018-09-15T19:48:20.506Z,4.20
2018-09-15T19:50:49.936Z,5.27
2018-09-15T19:53:19.404Z,4.57
2018-09-15T19:55:48.827Z,4.07
2018-09-15T19:58:18.222Z,5.20
2018-09-15T20:00:47.704Z,4.47
2018-09-15T20:03:17.130Z,4.53
2018-09-15T20:05:46.550Z,7.33
2018-09-15T20:08:15.937Z,4.57
2018-09-15T20:10:45.401Z,4.33
2018-09-15T20:13:14.816Z,8.40
2018-09-15T20:15:43.184Z,4.03
2018-09-15T20:18:11.386Z,4.47
2018-09-15T20:20:39.595Z,3.70
2018-09-15T20:23:09.019Z,4.43
2018-09-15T20:25:38.417Z,3.83
2018-09-15T20:28:07.801Z,4.80
2018-09-15T20:30:37.414Z,5.73
2018-09-15T20:33:06.986Z,5.50
2018-09-15T20:35:36.269Z,6.37
2018-09-15T20:38:05.799Z,6.93
2018-09-15T20:40:35.224Z,4.27
2018-09-15T20:43:04.614Z,4.77
2018-09-15T20:45:34.035Z,3.97
2018-09-15T20:48:03.443Z,4.57
2018-09-15T20:50:32.803Z,5.37
2018-09-15T20:53:02.230Z,6.83
2018-09-15T20:55:31.677Z,2.73
2018-09-15T20:58:01.069Z,5.27
2018-09-15T21:00:30.738Z,7.40
2018-09-15T21:03:00.134Z,5.03
2018-09-15T21:05:29.512Z,4.20
2018-09-15T21:07:58.920Z,9.63
2018-09-15T21:10:28.395Z,5.73
2018-09-15T21:12:57.798Z,5.47
2018-09-15T21:15:27.145Z,5.67
2018-09-15T21:17:56.671Z,5.47
2018-09-15T21:20:26.172Z,4.23
2018-09-15T21:22:55.583Z,4.07
2018-09-15T21:25:24.980Z,5.20
2018-09-15T21:27:54.361Z,4.20
2018-09-15T21:30:25.140Z,2.93
2018-09-15T21:32:54.753Z,5.63
2018-09-15T21:35:24.167Z,6.47
2018-09-15T21:37:53.635Z,4.50
2018-09-15T21:40:23.021Z,3.27
2018-09-15T21:42:52.506Z,6.87
2018-09-15T21:45:21.974Z,6.07
2018-09-15T21:47:51.460Z,5.87
2018-09-15T21:50:20.884Z,7.90
2018-09-15T21:52:50.286Z,6.10
2018-09-15T21:55:19.706Z,8.33
2018-09-15T21:57:49.060Z,6.03
2018-09-15T22:00:18.547Z,6.73
2018-09-15T22:02:47.920Z,9.57
2018-09-15T22:05:17.362Z,6.70
2018-09-15T22:07:46.763Z,7.17
2018-09-15T22:10:16.178Z,8.00
2018-09-15T22:12:45.657Z,8.37
2018-09-15T22:15:21.434Z,7.23
2018-09-15T22:17:50.854Z,6.67
2018-09-15T22:20:20.481Z,6.20
2018-09-15T22:22:49.874Z,6.43
2018-09-15T22:25:19.499Z,6.00
2018-09-15T22:27:49.243Z,5.90
2018-09-15T22:30:18.841Z,6.23
2018-09-15T22:32:48.268Z,3.60
2018-09-15T22:35:17.678Z,6.10
2018-09-15T22:37:47.090Z,7.77
2018-09-15T22:40:16.561Z,6.17
2018-09-15T22:42:46.186Z,6.70
2018-09-15T22:45:15.578Z,6.60
2018-09-15T22:47:44.967Z,8.13
2018-09-15T22:50:14.361Z,6.43
2018-09-15T22:52:43.823Z,9.03
2018-09-15T22:55:13.239Z,11.13
2018-09-15T22:57:42.641Z,8.10
2018-09-15T23:00:12.078Z,9.03
2018-09-15T23:02:41.451Z,9.63
2018-09-15T23:05:10.844Z,8.20
2018-09-15T23:07:40.227Z,8.53
2018-09-15T23:10:09.713Z,8.23
2018-09-15T23:12:39.254Z,8.97
2018-09-15T23:15:08.704Z,6.63
2018-09-15T23:17:38.109Z,6.90
2018-09-15T23:20:07.619Z,6.23
2018-09-15T23:22:37.015Z,7.33
2018-09-15T23:25:06.466Z,5.50
2018-09-15T23:27:35.899Z,5.77
2018-09-15T23:30:05.535Z,8.80
2018-09-15T23:32:34.985Z,8.23
2018-09-15T23:35:04.597Z,5.77
2018-09-15T23:37:34.046Z,9.53
2018-09-15T23:40:03.481Z,9.40
2018-09-15T23:42:32.912Z,8.17
2018-09-15T23:45:02.341Z,7.97
2018-09-15T23:47:31.705Z,9.70
2018-09-15T23:50:01.092Z,9.13
2018-09-15T23:52:30.498Z,8.83
2018-09-15T23:54:59.930Z,7.73
2018-09-15T23:57:29.655Z,9.27
2018-09-15T23:59:59.088Z,8.23
